sensor_id;sensor_type;location;lat;lon;timestamp;P1;durP1;ratioP1;P2;durP2;ratioP2
30617;SDS011;17384;51.214;9.202;2023-05-10T00:00:24;16.02;;;12.00;;
30617;SDS011;17384;51.214;9.202;2023-05-10T00:02:51;20.92;;;12.57;;
30617;SDS011;17384;51.214;9.202;2023-05-10T00:05:17;15.48;;;11.30;;
30617;SDS011;17384;51.214;9.202;2023-05-10T00:07:44;16.27;;;12.00;;
30617;SDS011;17384;51.214;9.202;2023-05-10T00:10:11;19.75;;;11.40;;
30617;SDS011;17384;51.214;9.202;2023-05-10T00:12:37;23.13;;;13.07;;
30617;SDS011;17384;51.214;9.202;2023-05-10T00:15:04;14.65;;;11.38;;
30617;SDS011;17384;51.214;9.202;2023-05-10T00:17:31;16.95;;;12.13;;
30617;SDS011;17384;51.214;9.202;2023-05-10T00:19:57;17.05;;;12.55;;
30617;SDS011;17384;51.214;9.202;2023-05-10T00:22:23;18.13;;;11.82;;
30617;SDS011;17384;51.214;9.202;2023-05-10T00:24:49;20.23;;;14.00;;
30617;SDS011;17384;51.214;9.202;2023-05-10T00:27:16;16.02;;;12.68;;
30617;SDS011;17384;51.214;9.202;2023-05-10T00:29:42;18.88;;;13.48;;
30617;SDS011;17384;51.214;9.202;2023-05-10T00:32:08;19.08;;;14.38;;
30617;SDS011;17384;51.214;9.202;2023-05-10T00:34:33;25.42;;;16.45;;
30617;SDS011;17384;51.214;9.202;2023-05-10T00:36:59;26.80;;;17.95;;
30617;SDS011;17384;51.214;9.202;2023-05-10T00:39:25;26.33;;;16.85;;
30617;SDS011;17384;51.214;9.202;2023-05-10T00:41:53;25.10;;;16.70;;
30617;SDS011;17384;51.214;9.202;2023-05-10T00:44:19;24.45;;;15.93;;
30617;SDS011;17384;51.214;9.202;2023-05-10T00:46:46;26.98;;;16.80;;
30617;SDS011;17384;51.214;9.202;2023-05-10T00:49:13;26.00;;;17.58;;
30617;SDS011;17384;51.214;9.202;2023-05-10T00:51:39;23.08;;;15.80;;
30617;SDS011;17384;51.214;9.202;2023-05-10T00:54:07;21.15;;;14.57;;
30617;SDS011;17384;51.214;9.202;2023-05-10T00:56:34;25.85;;;16.65;;
30617;SDS011;17384;51.214;9.202;2023-05-10T00:58:59;24.15;;;16.85;;
30617;SDS011;17384;51.214;9.202;2023-05-10T01:01:25;25.30;;;17.35;;
30617;SDS011;17384;51.214;9.202;2023-05-10T01:03:51;32.10;;;17.70;;
30617;SDS011;17384;51.214;9.202;2023-05-10T01:06:17;30.35;;;17.90;;
30617;SDS011;17384;51.214;9.202;2023-05-10T01:08:42;26.40;;;18.77;;
30617;SDS011;17384;51.214;9.202;2023-05-10T01:11:08;26.65;;;17.40;;
30617;SDS011;17384;51.214;9.202;2023-05-10T01:13:35;24.10;;;16.23;;
30617;SDS011;17384;51.214;9.202;2023-05-10T01:16:03;26.38;;;17.77;;
30617;SDS011;17384;51.214;9.202;2023-05-10T01:18:29;26.88;;;17.00;;
30617;SDS011;17384;51.214;9.202;2023-05-10T01:21:01;26.45;;;15.98;;
30617;SDS011;17384;51.214;9.202;2023-05-10T01:34:37;23.58;;;14.77;;
30617;SDS011;17384;51.214;9.202;2023-05-10T01:37:13;22.90;;;15.82;;
30617;SDS011;17384;51.214;9.202;2023-05-10T01:42:17;22.30;;;13.85;;
30617;SDS011;17384;51.214;9.202;2023-05-10T01:44:53;20.17;;;13.52;;
30617;SDS011;17384;51.214;9.202;2023-05-10T01:47:34;23.25;;;13.88;;
30617;SDS011;17384;51.214;9.202;2023-05-10T01:50:03;22.17;;;15.05;;
30617;SDS011;17384;51.214;9.202;2023-05-10T01:52:36;20.02;;;13.98;;
30617;SDS011;17384;51.214;9.202;2023-05-10T01:55:06;22.02;;;14.77;;
30617;SDS011;17384;51.214;9.202;2023-05-10T01:57:37;24.38;;;16.02;;
30617;SDS011;17384;51.214;9.202;2023-05-10T02:00:06;19.92;;;13.23;;
30617;SDS011;17384;51.214;9.202;2023-05-10T02:02:34;19.77;;;14.15;;
30617;SDS011;17384;51.214;9.202;2023-05-10T02:05:02;18.60;;;12.35;;
30617;SDS011;17384;51.214;9.202;2023-05-10T02:07:30;16.90;;;12.32;;
30617;SDS011;17384;51.214;9.202;2023-05-10T02:09:58;17.70;;;12.60;;
30617;SDS011;17384;51.214;9.202;2023-05-10T02:12:24;18.55;;;13.45;;
30617;SDS011;17384;51.214;9.202;2023-05-10T02:14:52;18.88;;;14.25;;
30617;SDS011;17384;51.214;9.202;2023-05-10T02:17:19;20.23;;;14.07;;
30617;SDS011;17384;51.214;9.202;2023-05-10T02:19:46;20.20;;;14.20;;
30617;SDS011;17384;51.214;9.202;2023-05-10T02:22:12;21.52;;;14.70;;
30617;SDS011;17384;51.214;9.202;2023-05-10T02:24:40;19.25;;;12.02;;
30617;SDS011;17384;51.214;9.202;2023-05-10T02:27:07;18.70;;;13.35;;
30617;SDS011;17384;51.214;9.202;2023-05-10T02:29:35;16.63;;;10.93;;
30617;SDS011;17384;51.214;9.202;2023-05-10T02:32:01;13.52;;;9.25;;
30617;SDS011;17384;51.214;9.202;2023-05-10T02:34:28;13.73;;;8.98;;
30617;SDS011;17384;51.214;9.202;2023-05-10T02:36:55;13.43;;;8.48;;
30617;SDS011;17384;51.214;9.202;2023-05-10T02:39:21;11.00;;;8.00;;
30617;SDS011;17384;51.214;9.202;2023-05-10T02:41:48;12.85;;;9.00;;
30617;SDS011;17384;51.214;9.202;2023-05-10T02:44:15;9.23;;;7.35;;
30617;SDS011;17384;51.214;9.202;2023-05-10T02:46:43;8.48;;;6.10;;
30617;SDS011;17384;51.214;9.202;2023-05-10T02:49:09;6.20;;;4.68;;
30617;SDS011;17384;51.214;9.202;2023-05-10T02:51:35;3.05;;;2.50;;
30617;SDS011;17384;51.214;9.202;2023-05-10T02:54:15;3.55;;;2.50;;
30617;SDS011;17384;51.214;9.202;2023-05-10T02:56:53;2.10;;;1.80;;
30617;SDS011;17384;51.214;9.202;2023-05-10T02:59:22;1.80;;;1.58;;
30617;SDS011;17384;51.214;9.202;2023-05-10T03:01:48;2.40;;;1.95;;
30617;SDS011;17384;51.214;9.202;2023-05-10T03:04:13;2.45;;;2.17;;
30617;SDS011;17384;51.214;9.202;2023-05-10T03:06:39;3.65;;;1.80;;
30617;SDS011;17384;51.214;9.202;2023-05-10T03:09:05;4.88;;;2.05;;
30617;SDS011;17384;51.214;9.202;2023-05-10T03:11:41;1.52;;;1.42;;
30617;SDS011;17384;51.214;9.202;2023-05-10T03:20:22;4.38;;;1.48;;
30617;SDS011;17384;51.214;9.202;2023-05-10T03:25:21;1.25;;;1.08;;
30617;SDS011;17384;51.214;9.202;2023-05-10T03:27:48;1.67;;;0.90;;
30617;SDS011;17384;51.214;9.202;2023-05-10T03:30:14;0.93;;;0.93;;
30617;SDS011;17384;51.214;9.202;2023-05-10T03:32:41;0.70;;;0.70;;
30617;SDS011;17384;51.214;9.202;2023-05-10T03:35:07;0.90;;;0.90;;
30617;SDS011;17384;51.214;9.202;2023-05-10T03:37:34;1.35;;;0.80;;
30617;SDS011;17384;51.214;9.202;2023-05-10T03:39:59;2.00;;;0.73;;
30617;SDS011;17384;51.214;9.202;2023-05-10T03:42:25;1.27;;;0.70;;
30617;SDS011;17384;51.214;9.202;2023-05-10T03:44:50;0.60;;;0.60;;
30617;SDS011;17384;51.214;9.202;2023-05-10T03:47:16;0.68;;;0.68;;
30617;SDS011;17384;51.214;9.202;2023-05-10T03:49:41;0.90;;;0.70;;
30617;SDS011;17384;51.214;9.202;2023-05-10T03:52:06;0.70;;;0.60;;
30617;SDS011;17384;51.214;9.202;2023-05-10T03:54:32;0.93;;;0.70;;
30617;SDS011;17384;51.214;9.202;2023-05-10T03:56:57;0.93;;;0.57;;
30617;SDS011;17384;51.214;9.202;2023-05-10T03:59:23;4.18;;;0.60;;
30617;SDS011;17384;51.214;9.202;2023-05-10T04:01:48;0.80;;;0.80;;
30617;SDS011;17384;51.214;9.202;2023-05-10T04:04:13;1.00;;;0.90;;
30617;SDS011;17384;51.214;9.202;2023-05-10T04:06:39;0.63;;;0.63;;
30617;SDS011;17384;51.214;9.202;2023-05-10T04:09:04;0.60;;;0.60;;
30617;SDS011;17384;51.214;9.202;2023-05-10T04:11:30;1.00;;;0.68;;
30617;SDS011;17384;51.214;9.202;2023-05-10T04:13:55;0.90;;;0.68;;
30617;SDS011;17384;51.214;9.202;2023-05-10T04:16:21;1.40;;;0.80;;
30617;SDS011;17384;51.214;9.202;2023-05-10T04:18:47;1.02;;;0.73;;
30617;SDS011;17384;51.214;9.202;2023-05-10T04:21:13;0.70;;;0.70;;
30617;SDS011;17384;51.214;9.202;2023-05-10T04:23:39;2.03;;;0.52;;
30617;SDS011;17384;51.214;9.202;2023-05-10T04:26:05;0.60;;;0.60;;
30617;SDS011;17384;51.214;9.202;2023-05-10T04:28:30;1.00;;;0.40;;
30617;SDS011;17384;51.214;9.202;2023-05-10T04:31:03;0.52;;;0.52;;
30617;SDS011;17384;51.214;9.202;2023-05-10T04:33:29;3.53;;;0.50;;
30617;SDS011;17384;51.214;9.202;2023-05-10T04:35:54;2.10;;;1.27;;
30617;SDS011;17384;51.214;9.202;2023-05-10T04:38:20;0.60;;;0.60;;
30617;SDS011;17384;51.214;9.202;2023-05-10T04:40:45;0.50;;;0.50;;
30617;SDS011;17384;51.214;9.202;2023-05-10T04:43:11;0.90;;;0.60;;
30617;SDS011;17384;51.214;9.202;2023-05-10T04:45:36;0.50;;;0.50;;
30617;SDS011;17384;51.214;9.202;2023-05-10T04:48:02;0.47;;;0.47;;
30617;SDS011;17384;51.214;9.202;2023-05-10T04:50:27;0.60;;;0.60;;
30617;SDS011;17384;51.214;9.202;2023-05-10T04:52:52;0.52;;;0.52;;
30617;SDS011;17384;51.214;9.202;2023-05-10T04:55:18;0.70;;;0.57;;
30617;SDS011;17384;51.214;9.202;2023-05-10T04:57:43;0.73;;;0.73;;
30617;SDS011;17384;51.214;9.202;2023-05-10T05:00:10;2.28;;;0.70;;
30617;SDS011;17384;51.214;9.202;2023-05-10T05:02:36;0.73;;;0.60;;
30617;SDS011;17384;51.214;9.202;2023-05-10T05:05:01;4.30;;;0.57;;
30617;SDS011;17384;51.214;9.202;2023-05-10T05:07:26;0.60;;;0.60;;
30617;SDS011;17384;51.214;9.202;2023-05-10T05:09:52;0.47;;;0.47;;
30617;SDS011;17384;51.214;9.202;2023-05-10T05:12:17;0.73;;;0.60;;
30617;SDS011;17384;51.214;9.202;2023-05-10T05:14:43;0.50;;;0.50;;
30617;SDS011;17384;51.214;9.202;2023-05-10T05:17:08;0.65;;;0.50;;
30617;SDS011;17384;51.214;9.202;2023-05-10T05:19:33;0.65;;;0.65;;
30617;SDS011;17384;51.214;9.202;2023-05-10T05:21:59;0.70;;;0.70;;
30617;SDS011;17384;51.214;9.202;2023-05-10T05:24:24;0.52;;;0.52;;
30617;SDS011;17384;51.214;9.202;2023-05-10T05:26:50;1.70;;;0.40;;
30617;SDS011;17384;51.214;9.202;2023-05-10T05:29:15;0.50;;;0.50;;
30617;SDS011;17384;51.214;9.202;2023-05-10T05:31:41;0.63;;;0.60;;
30617;SDS011;17384;51.214;9.202;2023-05-10T05:34:06;0.50;;;0.50;;
30617;SDS011;17384;51.214;9.202;2023-05-10T05:36:32;1.45;;;0.68;;
30617;SDS011;17384;51.214;9.202;2023-05-10T05:38:57;0.57;;;0.57;;
30617;SDS011;17384;51.214;9.202;2023-05-10T05:41:23;0.50;;;0.50;;
30617;SDS011;17384;51.214;9.202;2023-05-10T05:43:49;1.25;;;0.50;;
30617;SDS011;17384;51.214;9.202;2023-05-10T05:46:15;1.75;;;0.82;;
30617;SDS011;17384;51.214;9.202;2023-05-10T05:48:40;0.60;;;0.50;;
30617;SDS011;17384;51.214;9.202;2023-05-10T05:51:06;1.63;;;0.60;;
30617;SDS011;17384;51.214;9.202;2023-05-10T05:53:31;0.47;;;0.47;;
30617;SDS011;17384;51.214;9.202;2023-05-10T05:55:57;1.80;;;0.60;;
30617;SDS011;17384;51.214;9.202;2023-05-10T05:58:24;1.85;;;0.40;;
30617;SDS011;17384;51.214;9.202;2023-05-10T06:00:50;1.02;;;0.40;;
30617;SDS011;17384;51.214;9.202;2023-05-10T06:03:19;0.68;;;0.50;;
30617;SDS011;17384;51.214;9.202;2023-05-10T06:05:45;1.58;;;0.60;;
30617;SDS011;17384;51.214;9.202;2023-05-10T06:08:11;2.30;;;0.50;;
30617;SDS011;17384;51.214;9.202;2023-05-10T06:10:37;0.55;;;0.50;;
30617;SDS011;17384;51.214;9.202;2023-05-10T06:13:02;0.40;;;0.40;;
30617;SDS011;17384;51.214;9.202;2023-05-10T06:15:28;2.38;;;0.40;;
30617;SDS011;17384;51.214;9.202;2023-05-10T06:17:53;3.53;;;0.57;;
30617;SDS011;17384;51.214;9.202;2023-05-10T06:20:19;0.45;;;0.45;;
30617;SDS011;17384;51.214;9.202;2023-05-10T06:22:44;0.40;;;0.40;;
30617;SDS011;17384;51.214;9.202;2023-05-10T06:25:10;4.10;;;0.68;;
30617;SDS011;17384;51.214;9.202;2023-05-10T06:27:36;3.25;;;0.88;;
30617;SDS011;17384;51.214;9.202;2023-05-10T06:30:01;0.70;;;0.70;;
30617;SDS011;17384;51.214;9.202;2023-05-10T06:32:27;0.80;;;0.63;;
30617;SDS011;17384;51.214;9.202;2023-05-10T06:34:53;0.75;;;0.63;;
30617;SDS011;17384;51.214;9.202;2023-05-10T06:37:18;0.50;;;0.50;;
30617;SDS011;17384;51.214;9.202;2023-05-10T06:39:44;2.25;;;0.60;;
30617;SDS011;17384;51.214;9.202;2023-05-10T06:42:09;0.50;;;0.50;;
30617;SDS011;17384;51.214;9.202;2023-05-10T06:44:35;0.57;;;0.57;;
30617;SDS011;17384;51.214;9.202;2023-05-10T06:47:01;0.80;;;0.55;;
30617;SDS011;17384;51.214;9.202;2023-05-10T06:49:26;1.00;;;0.60;;
30617;SDS011;17384;51.214;9.202;2023-05-10T06:51:51;1.40;;;0.60;;
30617;SDS011;17384;51.214;9.202;2023-05-10T06:54:17;2.45;;;0.70;;
30617;SDS011;17384;51.214;9.202;2023-05-10T06:56:42;1.35;;;0.63;;
30617;SDS011;17384;51.214;9.202;2023-05-10T06:59:08;0.85;;;0.55;;
30617;SDS011;17384;51.214;9.202;2023-05-10T07:01:33;2.25;;;0.52;;
30617;SDS011;17384;51.214;9.202;2023-05-10T07:03:59;2.83;;;0.70;;
30617;SDS011;17384;51.214;9.202;2023-05-10T07:06:24;1.42;;;0.73;;
30617;SDS011;17384;51.214;9.202;2023-05-10T07:08:49;0.95;;;0.63;;
30617;SDS011;17384;51.214;9.202;2023-05-10T07:11:15;2.33;;;0.60;;
30617;SDS011;17384;51.214;9.202;2023-05-10T07:13:41;0.50;;;0.50;;
30617;SDS011;17384;51.214;9.202;2023-05-10T07:16:09;0.57;;;0.57;;
30617;SDS011;17384;51.214;9.202;2023-05-10T07:18:35;0.82;;;0.75;;
30617;SDS011;17384;51.214;9.202;2023-05-10T07:21:01;1.77;;;0.70;;
30617;SDS011;17384;51.214;9.202;2023-05-10T07:23:26;0.88;;;0.80;;
30617;SDS011;17384;51.214;9.202;2023-05-10T07:25:52;1.23;;;0.98;;
30617;SDS011;17384;51.214;9.202;2023-05-10T07:28:18;1.27;;;1.05;;
30617;SDS011;17384;51.214;9.202;2023-05-10T07:30:44;1.17;;;1.08;;
30617;SDS011;17384;51.214;9.202;2023-05-10T07:33:10;1.98;;;0.80;;
30617;SDS011;17384;51.214;9.202;2023-05-10T07:35:37;1.10;;;1.00;;
30617;SDS011;17384;51.214;9.202;2023-05-10T07:38:02;0.93;;;0.82;;
30617;SDS011;17384;51.214;9.202;2023-05-10T07:40:28;4.75;;;0.85;;
30617;SDS011;17384;51.214;9.202;2023-05-10T07:42:54;1.15;;;0.88;;
30617;SDS011;17384;51.214;9.202;2023-05-10T07:45:20;3.63;;;1.30;;
30617;SDS011;17384;51.214;9.202;2023-05-10T07:47:45;2.60;;;1.33;;
30617;SDS011;17384;51.214;9.202;2023-05-10T07:50:11;1.15;;;1.05;;
30617;SDS011;17384;51.214;9.202;2023-05-10T07:52:43;2.00;;;1.00;;
30617;SDS011;17384;51.214;9.202;2023-05-10T07:55:08;1.88;;;1.05;;
30617;SDS011;17384;51.214;9.202;2023-05-10T07:57:34;2.15;;;0.88;;
30617;SDS011;17384;51.214;9.202;2023-05-10T08:00:00;0.88;;;0.85;;
30617;SDS011;17384;51.214;9.202;2023-05-10T08:02:25;1.73;;;1.15;;
30617;SDS011;17384;51.214;9.202;2023-05-10T08:04:51;0.77;;;0.73;;
30617;SDS011;17384;51.214;9.202;2023-05-10T08:07:17;1.70;;;1.10;;
30617;SDS011;17384;51.214;9.202;2023-05-10T08:09:42;2.55;;;1.00;;
30617;SDS011;17384;51.214;9.202;2023-05-10T08:12:08;0.95;;;0.88;;
30617;SDS011;17384;51.214;9.202;2023-05-10T08:14:34;3.38;;;0.95;;
30617;SDS011;17384;51.214;9.202;2023-05-10T08:17:01;1.83;;;1.00;;
30617;SDS011;17384;51.214;9.202;2023-05-10T08:19:28;1.90;;;0.80;;
30617;SDS011;17384;51.214;9.202;2023-05-10T08:21:53;0.75;;;0.75;;
30617;SDS011;17384;51.214;9.202;2023-05-10T08:24:20;4.22;;;1.27;;
30617;SDS011;17384;51.214;9.202;2023-05-10T08:26:47;2.05;;;0.93;;
30617;SDS011;17384;51.214;9.202;2023-05-10T08:29:12;1.40;;;1.30;;
30617;SDS011;17384;51.214;9.202;2023-05-10T08:31:38;1.40;;;1.23;;
30617;SDS011;17384;51.214;9.202;2023-05-10T08:34:04;2.45;;;1.30;;
30617;SDS011;17384;51.214;9.202;2023-05-10T08:36:30;3.53;;;1.20;;
30617;SDS011;17384;51.214;9.202;2023-05-10T08:38:57;2.95;;;1.20;;
30617;SDS011;17384;51.214;9.202;2023-05-10T08:41:23;2.40;;;1.13;;
30617;SDS011;17384;51.214;9.202;2023-05-10T08:43:51;2.17;;;1.38;;
30617;SDS011;17384;51.214;9.202;2023-05-10T08:46:17;2.80;;;0.88;;
30617;SDS011;17384;51.214;9.202;2023-05-10T08:48:44;1.15;;;1.05;;
30617;SDS011;17384;51.214;9.202;2023-05-10T08:51:14;3.95;;;0.90;;
30617;SDS011;17384;51.214;9.202;2023-05-10T08:56:10;2.50;;;1.40;;
30617;SDS011;17384;51.214;9.202;2023-05-10T08:58:36;3.35;;;1.20;;
30617;SDS011;17384;51.214;9.202;2023-05-10T09:01:03;1.85;;;1.30;;
30617;SDS011;17384;51.214;9.202;2023-05-10T09:03:30;1.63;;;1.08;;
30617;SDS011;17384;51.214;9.202;2023-05-10T09:05:56;1.60;;;1.00;;
30617;SDS011;17384;51.214;9.202;2023-05-10T09:08:22;1.40;;;1.20;;
30617;SDS011;17384;51.214;9.202;2023-05-10T09:10:51;6.93;;;1.40;;
30617;SDS011;17384;51.214;9.202;2023-05-10T09:13:18;1.52;;;1.33;;
30617;SDS011;17384;51.214;9.202;2023-05-10T09:15:44;1.73;;;1.23;;
30617;SDS011;17384;51.214;9.202;2023-05-10T09:18:10;3.08;;;1.80;;
30617;SDS011;17384;51.214;9.202;2023-05-10T09:20:36;2.13;;;1.10;;
30617;SDS011;17384;51.214;9.202;2023-05-10T09:23:02;2.10;;;1.40;;
30617;SDS011;17384;51.214;9.202;2023-05-10T09:25:27;2.97;;;1.50;;
30617;SDS011;17384;51.214;9.202;2023-05-10T09:27:53;3.15;;;1.70;;
30617;SDS011;17384;51.214;9.202;2023-05-10T09:30:26;3.80;;;2.40;;
30617;SDS011;17384;51.214;9.202;2023-05-10T09:32:54;4.93;;;2.60;;
30617;SDS011;17384;51.214;9.202;2023-05-10T09:35:21;6.10;;;2.60;;
30617;SDS011;17384;51.214;9.202;2023-05-10T09:37:49;3.85;;;2.25;;
30617;SDS011;17384;51.214;9.202;2023-05-10T09:40:28;4.72;;;3.20;;
30617;SDS011;17384;51.214;9.202;2023-05-10T09:43:01;6.75;;;3.28;;
30617;SDS011;17384;51.214;9.202;2023-05-10T09:45:31;5.00;;;3.45;;
30617;SDS011;17384;51.214;9.202;2023-05-10T09:47:58;6.65;;;3.72;;
30617;SDS011;17384;51.214;9.202;2023-05-10T09:50:25;6.03;;;3.70;;
30617;SDS011;17384;51.214;9.202;2023-05-10T09:55:24;8.48;;;3.83;;
30617;SDS011;17384;51.214;9.202;2023-05-10T09:58:10;4.43;;;3.40;;
30617;SDS011;17384;51.214;9.202;2023-05-10T10:00:37;7.68;;;3.63;;
30617;SDS011;17384;51.214;9.202;2023-05-10T10:03:04;10.75;;;4.07;;
30617;SDS011;17384;51.214;9.202;2023-05-10T10:05:31;6.75;;;3.53;;
30617;SDS011;17384;51.214;9.202;2023-05-10T10:08:00;5.63;;;3.63;;
30617;SDS011;17384;51.214;9.202;2023-05-10T10:10:29;6.15;;;4.22;;
30617;SDS011;17384;51.214;9.202;2023-05-10T10:12:56;6.72;;;4.13;;
30617;SDS011;17384;51.214;9.202;2023-05-10T10:15:22;6.60;;;3.63;;
30617;SDS011;17384;51.214;9.202;2023-05-10T10:17:49;6.88;;;4.35;;
30617;SDS011;17384;51.214;9.202;2023-05-10T10:20:16;8.85;;;4.18;;
30617;SDS011;17384;51.214;9.202;2023-05-10T10:25:09;9.77;;;5.10;;
30617;SDS011;17384;51.214;9.202;2023-05-10T10:36:03;8.75;;;4.70;;
30617;SDS011;17384;51.214;9.202;2023-05-10T10:38:38;8.43;;;5.35;;
30617;SDS011;17384;51.214;9.202;2023-05-10T10:41:34;9.45;;;5.57;;
30617;SDS011;17384;51.214;9.202;2023-05-10T10:47:24;9.30;;;5.38;;
30617;SDS011;17384;51.214;9.202;2023-05-10T10:52:36;10.73;;;5.50;;
30617;SDS011;17384;51.214;9.202;2023-05-10T11:02:52;9.75;;;5.13;;
30617;SDS011;17384;51.214;9.202;2023-05-10T11:07:53;10.15;;;5.35;;
30617;SDS011;17384;51.214;9.202;2023-05-10T11:10:20;9.35;;;4.82;;
30617;SDS011;17384;51.214;9.202;2023-05-10T11:12:59;9.68;;;5.18;;
30617;SDS011;17384;51.214;9.202;2023-05-10T11:18:16;7.70;;;4.70;;
30617;SDS011;17384;51.214;9.202;2023-05-10T11:26:08;8.68;;;4.85;;
30617;SDS011;17384;51.214;9.202;2023-05-10T11:28:44;10.55;;;3.80;;
30617;SDS011;17384;51.214;9.202;2023-05-10T11:31:12;6.88;;;4.03;;
30617;SDS011;17384;51.214;9.202;2023-05-10T11:33:46;7.57;;;3.58;;
30617;SDS011;17384;51.214;9.202;2023-05-10T11:36:17;7.35;;;3.42;;
30617;SDS011;17384;51.214;9.202;2023-05-10T11:38:44;7.28;;;3.45;;
30617;SDS011;17384;51.214;9.202;2023-05-10T11:41:10;8.68;;;4.13;;
30617;SDS011;17384;51.214;9.202;2023-05-10T11:43:39;7.47;;;4.00;;
30617;SDS011;17384;51.214;9.202;2023-05-10T11:46:06;6.03;;;3.65;;
30617;SDS011;17384;51.214;9.202;2023-05-10T11:48:32;7.70;;;3.40;;
30617;SDS011;17384;51.214;9.202;2023-05-10T11:50:58;8.60;;;3.45;;
30617;SDS011;17384;51.214;9.202;2023-05-10T11:53:26;10.23;;;4.03;;
30617;SDS011;17384;51.214;9.202;2023-05-10T11:55:53;4.18;;;3.38;;
30617;SDS011;17384;51.214;9.202;2023-05-10T11:58:18;20.20;;;4.72;;
30617;SDS011;17384;51.214;9.202;2023-05-10T12:00:44;6.20;;;4.07;;
30617;SDS011;17384;51.214;9.202;2023-05-10T12:03:10;7.15;;;3.47;;
30617;SDS011;17384;51.214;9.202;2023-05-10T12:05:36;8.05;;;3.90;;
30617;SDS011;17384;51.214;9.202;2023-05-10T12:08:12;8.52;;;4.00;;
30617;SDS011;17384;51.214;9.202;2023-05-10T12:10:39;6.35;;;3.83;;
30617;SDS011;17384;51.214;9.202;2023-05-10T12:13:04;5.07;;;3.80;;
30617;SDS011;17384;51.214;9.202;2023-05-10T12:15:30;4.65;;;3.33;;
30617;SDS011;17384;51.214;9.202;2023-05-10T12:17:55;5.28;;;3.28;;
30617;SDS011;17384;51.214;9.202;2023-05-10T12:20:24;5.28;;;3.72;;
30617;SDS011;17384;51.214;9.202;2023-05-10T12:22:53;4.15;;;3.35;;
30617;SDS011;17384;51.214;9.202;2023-05-10T12:25:21;5.70;;;3.58;;
30617;SDS011;17384;51.214;9.202;2023-05-10T12:27:51;7.03;;;3.40;;
30617;SDS011;17384;51.214;9.202;2023-05-10T12:30:21;6.53;;;3.42;;
30617;SDS011;17384;51.214;9.202;2023-05-10T12:32:51;5.30;;;3.45;;
30617;SDS011;17384;51.214;9.202;2023-05-10T12:35:17;5.63;;;3.67;;
30617;SDS011;17384;51.214;9.202;2023-05-10T12:37:47;5.57;;;3.25;;
30617;SDS011;17384;51.214;9.202;2023-05-10T12:40:13;10.85;;;2.42;;
30617;SDS011;17384;51.214;9.202;2023-05-10T12:42:39;6.30;;;3.78;;
30617;SDS011;17384;51.214;9.202;2023-05-10T12:45:05;5.05;;;3.10;;
30617;SDS011;17384;51.214;9.202;2023-05-10T12:47:32;6.82;;;3.20;;
30617;SDS011;17384;51.214;9.202;2023-05-10T12:49:58;6.90;;;3.55;;
30617;SDS011;17384;51.214;9.202;2023-05-10T12:52:25;5.30;;;3.67;;
30617;SDS011;17384;51.214;9.202;2023-05-10T12:54:51;5.85;;;3.90;;
30617;SDS011;17384;51.214;9.202;2023-05-10T12:57:17;5.78;;;3.15;;
30617;SDS011;17384;51.214;9.202;2023-05-10T12:59:43;10.57;;;3.40;;
30617;SDS011;17384;51.214;9.202;2023-05-10T13:02:09;5.47;;;2.92;;
30617;SDS011;17384;51.214;9.202;2023-05-10T13:04:35;3.58;;;2.38;;
30617;SDS011;17384;51.214;9.202;2023-05-10T13:07:02;3.28;;;2.42;;
30617;SDS011;17384;51.214;9.202;2023-05-10T13:09:27;3.55;;;1.95;;
30617;SDS011;17384;51.214;9.202;2023-05-10T13:11:56;2.20;;;1.90;;
30617;SDS011;17384;51.214;9.202;2023-05-10T13:14:21;4.15;;;2.35;;
30617;SDS011;17384;51.214;9.202;2023-05-10T13:16:47;3.08;;;2.55;;
30617;SDS011;17384;51.214;9.202;2023-05-10T13:19:16;6.20;;;1.90;;
30617;SDS011;17384;51.214;9.202;2023-05-10T13:21:42;2.08;;;1.58;;
30617;SDS011;17384;51.214;9.202;2023-05-10T13:24:09;2.13;;;1.58;;
30617;SDS011;17384;51.214;9.202;2023-05-10T13:26:35;2.25;;;1.55;;
30617;SDS011;17384;51.214;9.202;2023-05-10T13:29:01;2.95;;;1.38;;
30617;SDS011;17384;51.214;9.202;2023-05-10T13:31:27;3.22;;;1.83;;
30617;SDS011;17384;51.214;9.202;2023-05-10T13:33:53;4.10;;;1.63;;
30617;SDS011;17384;51.214;9.202;2023-05-10T13:36:18;2.35;;;1.42;;
30617;SDS011;17384;51.214;9.202;2023-05-10T13:38:44;1.60;;;1.50;;
30617;SDS011;17384;51.214;9.202;2023-05-10T13:41:09;1.85;;;1.10;;
30617;SDS011;17384;51.214;9.202;2023-05-10T13:43:35;2.10;;;1.65;;
30617;SDS011;17384;51.214;9.202;2023-05-10T13:46:01;1.48;;;1.27;;
30617;SDS011;17384;51.214;9.202;2023-05-10T13:48:27;4.45;;;3.28;;
30617;SDS011;17384;51.214;9.202;2023-05-10T13:50:53;4.75;;;3.38;;
30617;SDS011;17384;51.214;9.202;2023-05-10T13:53:18;4.38;;;2.67;;
30617;SDS011;17384;51.214;9.202;2023-05-10T13:55:44;7.40;;;2.53;;
30617;SDS011;17384;51.214;9.202;2023-05-10T13:58:09;5.75;;;2.58;;
30617;SDS011;17384;51.214;9.202;2023-05-10T14:00:35;4.60;;;2.55;;
30617;SDS011;17384;51.214;9.202;2023-05-10T14:03:01;4.38;;;2.42;;
30617;SDS011;17384;51.214;9.202;2023-05-10T14:05:26;5.25;;;2.67;;
30617;SDS011;17384;51.214;9.202;2023-05-10T14:07:51;5.55;;;2.78;;
30617;SDS011;17384;51.214;9.202;2023-05-10T14:10:17;6.00;;;3.20;;
30617;SDS011;17384;51.214;9.202;2023-05-10T14:12:42;4.05;;;2.70;;
30617;SDS011;17384;51.214;9.202;2023-05-10T14:15:08;4.82;;;2.92;;
30617;SDS011;17384;51.214;9.202;2023-05-10T14:17:36;4.85;;;2.78;;
30617;SDS011;17384;51.214;9.202;2023-05-10T14:20:01;8.40;;;3.58;;
30617;SDS011;17384;51.214;9.202;2023-05-10T14:22:28;11.77;;;3.45;;
30617;SDS011;17384;51.214;9.202;2023-05-10T14:24:54;7.88;;;3.55;;
30617;SDS011;17384;51.214;9.202;2023-05-10T14:27:19;6.75;;;3.28;;
30617;SDS011;17384;51.214;9.202;2023-05-10T14:29:45;4.85;;;3.20;;
30617;SDS011;17384;51.214;9.202;2023-05-10T14:32:10;9.45;;;2.75;;
30617;SDS011;17384;51.214;9.202;2023-05-10T14:34:36;4.00;;;2.50;;
30617;SDS011;17384;51.214;9.202;2023-05-10T14:37:01;4.68;;;2.67;;
30617;SDS011;17384;51.214;9.202;2023-05-10T14:39:27;3.72;;;2.78;;
30617;SDS011;17384;51.214;9.202;2023-05-10T14:41:54;7.35;;;3.00;;
30617;SDS011;17384;51.214;9.202;2023-05-10T14:44:20;8.65;;;2.85;;
30617;SDS011;17384;51.214;9.202;2023-05-10T14:46:46;6.35;;;2.63;;
30617;SDS011;17384;51.214;9.202;2023-05-10T14:49:12;7.43;;;2.95;;
30617;SDS011;17384;51.214;9.202;2023-05-10T14:51:37;5.85;;;2.65;;
30617;SDS011;17384;51.214;9.202;2023-05-10T14:54:03;2.97;;;2.15;;
30617;SDS011;17384;51.214;9.202;2023-05-10T14:56:28;5.60;;;2.30;;
30617;SDS011;17384;51.214;9.202;2023-05-10T14:58:53;5.20;;;2.40;;
30617;SDS011;17384;51.214;9.202;2023-05-10T15:01:19;3.83;;;2.05;;
30617;SDS011;17384;51.214;9.202;2023-05-10T15:03:44;6.25;;;2.60;;
30617;SDS011;17384;51.214;9.202;2023-05-10T15:06:10;5.68;;;2.88;;
30617;SDS011;17384;51.214;9.202;2023-05-10T15:08:35;4.82;;;2.50;;
30617;SDS011;17384;51.214;9.202;2023-05-10T15:11:02;3.70;;;2.42;;
30617;SDS011;17384;51.214;9.202;2023-05-10T15:13:28;3.65;;;2.03;;
30617;SDS011;17384;51.214;9.202;2023-05-10T15:15:53;3.30;;;2.30;;
30617;SDS011;17384;51.214;9.202;2023-05-10T15:18:19;3.03;;;1.75;;
30617;SDS011;17384;51.214;9.202;2023-05-10T15:20:48;8.07;;;1.98;;
30617;SDS011;17384;51.214;9.202;2023-05-10T15:23:16;3.55;;;2.42;;
30617;SDS011;17384;51.214;9.202;2023-05-10T15:25:42;6.65;;;2.40;;
30617;SDS011;17384;51.214;9.202;2023-05-10T15:28:07;5.85;;;2.42;;
30617;SDS011;17384;51.214;9.202;2023-05-10T15:30:33;3.58;;;2.42;;
30617;SDS011;17384;51.214;9.202;2023-05-10T15:32:58;3.08;;;2.42;;
30617;SDS011;17384;51.214;9.202;2023-05-10T15:35:25;3.33;;;2.00;;
30617;SDS011;17384;51.214;9.202;2023-05-10T15:37:51;3.92;;;1.80;;
30617;SDS011;17384;51.214;9.202;2023-05-10T15:40:17;2.80;;;1.73;;
30617;SDS011;17384;51.214;9.202;2023-05-10T15:42:42;3.33;;;1.50;;